Rossville, TN (38066)

11:19 AM CDT on March 27, 2015 (GMT -0500)
Frazier Road | | Change Station
CLOSE
Current Station
Personal Weather Station
Location: Rossville, TN
Elevation: 364 ft
Nearby Weather Stations
Active Advisory: Freeze Watch

Elev 364 ft 35.03 °N, 89.53 °W | Updated 4 minutes ago

Overcast
Overcast
46.5 °F
Feels Like 46 °F
N
3.0
Wind Variable Wind from NW
Gusts 12.0 mph

Today
High -- | Low -- °F
--% Chance of Precip.
Yesterday
High -- | Low -- °F
Precip. -- in
6:52 AM 7:15 PM
First Quarter, 54% visible
Pressure 30.09 in
Visibility 7.0 miles
Clouds Scattered Clouds 3300 ft
Overcast 4500 ft
Windchill 46 °F
Dew Point 37 °F
Humidity 69%
Rainfall 0.00 in
Snow Depth Not available.
UV 1.6 out of 12
Pollen 8.70 out of 12
Air Quality Not available.
Flu Activity Not available.
METAR KOLV 271550Z 32010KT 7SM SCT033 OVC045 07/03 A3009

More Conditions Fewer Conditions

Pressure 30.09 in
Visibility 7.0 miles
Clouds Scattered Clouds 3300 ft
Overcast 4500 ft
Windchill 46 °F
Dew Point 37 °F
Humidity 69%
Rainfall 0.00 in
Snow Depth Not available.
UV 1.6 out of 12
Pollen 8.70 out of 12
Air Quality Not available.
Flu Activity Not available.
METAR KOLV 271550Z 32010KT 7SM SCT033 OVC045 07/03 A3009

More Conditions Fewer Conditions

10-Day Weather Forecast

Almanac

Astronomy

Mar. 27, 2015 Rise Set
Actual Time
Civil Twilight
Nautical Twilight
Astronomical Twilight
Moon
Length of Visible Light
Length of Day
Tomorrow will be .
, % of the Moon is Illuminated

Today's Extremes

State Highs State Lows

Community

WunderPhotos

Upload Photos

1,808,766 photos uploaded!

WunderBlogs® & News

Nearby

Air Quality

  Air Quality AQ Index Pollutant
Not available.

Snow Depth

Station Depth Elevation

Earthquake Activity

City Distance Mag. Time & Date
Minimum magnitude displayed is 2.5.

Coastal Water Temperatures

Place Temperature

Stations

Nearby Weather Stations

Station Location Temp. Windchill Dew Point Humidity Wind Precip. Elev Updated Type
                   
Freeze Watch
Statement as of 3:13 AM CDT on March 27, 2015

... Freeze watch in effect from late tonight through Saturday
morning...

The National Weather Service in Memphis has issued a freeze
watch... which is in effect from late tonight through Saturday
morning.

* Temperature... 26 degrees to 32 degrees.

* Timing... late tonight through Saturday morning.

* Impacts... sensitive vegetation may be damaged or killed.

Precautionary/preparedness actions...

A freeze watch means sub-freezing temperatures are possible.
These conditions could kill crops and other sensitive vegetation.